createdAt,value
2017-08-15T00:00:56.711Z,20.35
2017-08-15T00:03:32.487Z,20.29
2017-08-15T00:06:07.233Z,20.34
2017-08-15T00:08:42.823Z,20.37
2017-08-15T00:11:17.558Z,20.36
2017-08-15T00:13:53.160Z,20.40
2017-08-15T00:16:27.962Z,20.34
2017-08-15T00:19:02.693Z,20.26
2017-08-15T00:21:37.295Z,20.14
2017-08-15T00:24:12.911Z,20.14
2017-08-15T00:26:47.606Z,20.16
2017-08-15T00:29:22.259Z,20.06
2017-08-15T00:31:57.963Z,19.93
2017-08-15T00:34:32.650Z,19.87
2017-08-15T00:37:07.152Z,19.91
2017-08-15T00:39:41.795Z,19.87
2017-08-15T00:42:16.040Z,19.89
2017-08-15T00:44:50.967Z,19.93
2017-08-15T00:47:25.735Z,19.98
2017-08-15T00:50:00.031Z,20.02
2017-08-15T00:52:35.040Z,19.98
2017-08-15T00:55:09.476Z,19.96
2017-08-15T00:57:44.547Z,19.98
2017-08-15T01:00:18.849Z,19.94
2017-08-15T01:02:53.755Z,19.92
2017-08-15T01:05:28.445Z,19.91
2017-08-15T01:08:03.724Z,19.96
2017-08-15T01:10:39.655Z,19.87
2017-08-15T01:13:14.344Z,19.93
2017-08-15T01:15:49.087Z,20.04
2017-08-15T01:18:23.678Z,20.01
2017-08-15T01:20:58.329Z,19.74
2017-08-15T01:23:33.159Z,19.77
2017-08-15T01:26:08.831Z,19.76
2017-08-15T01:28:43.438Z,19.76
2017-08-15T01:31:18.086Z,19.77
2017-08-15T01:33:52.703Z,19.74
2017-08-15T01:36:27.363Z,19.82
2017-08-15T01:39:01.955Z,19.88
2017-08-15T01:41:36.499Z,19.83
2017-08-15T01:44:11.011Z,19.90
2017-08-15T01:46:45.674Z,19.87
2017-08-15T01:49:20.347Z,19.80
2017-08-15T01:51:54.671Z,19.65
2017-08-15T01:54:29.346Z,19.66
2017-08-15T01:57:04.262Z,19.73
2017-08-15T01:59:38.959Z,19.74
2017-08-15T02:02:13.709Z,19.76
2017-08-15T02:04:48.395Z,19.78
2017-08-15T02:07:23.032Z,19.73
2017-08-15T02:09:57.656Z,19.65
2017-08-15T02:12:32.395Z,19.55
2017-08-15T02:15:07.055Z,19.51
2017-08-15T02:17:41.656Z,19.51
2017-08-15T02:20:16.360Z,19.48
2017-08-15T02:22:51.170Z,19.48
2017-08-15T02:25:25.886Z,19.46
2017-08-15T02:28:00.394Z,19.39
2017-08-15T02:30:35.075Z,19.28
2017-08-15T02:33:09.890Z,19.28
2017-08-15T02:35:44.536Z,19.28
2017-08-15T02:38:19.179Z,19.29
2017-08-15T02:40:53.867Z,19.33
2017-08-15T02:43:28.367Z,19.33
2017-08-15T02:46:03.044Z,19.30
2017-08-15T02:48:38.699Z,19.25
2017-08-15T02:51:13.322Z,19.27
2017-08-15T02:53:47.966Z,19.26
2017-08-15T02:56:22.684Z,19.27
2017-08-15T02:58:57.470Z,19.29
2017-08-15T03:01:32.768Z,19.30
2017-08-15T03:04:07.830Z,19.28
2017-08-15T03:06:42.927Z,19.27
2017-08-15T03:09:18.610Z,19.27
2017-08-15T03:11:53.277Z,19.26
2017-08-15T03:14:28.943Z,19.26
2017-08-15T03:17:03.596Z,19.22
2017-08-15T03:19:39.253Z,19.10
2017-08-15T03:22:13.867Z,19.09
2017-08-15T03:24:48.867Z,19.12
2017-08-15T03:27:23.855Z,19.10
2017-08-15T03:29:59.924Z,19.05
2017-08-15T03:32:34.607Z,18.97
2017-08-15T03:35:09.404Z,18.82
2017-08-15T03:37:44.269Z,18.78
2017-08-15T03:40:19.596Z,18.72
2017-08-15T03:42:54.300Z,18.75
2017-08-15T03:45:28.971Z,18.74
2017-08-15T03:48:04.635Z,18.73
2017-08-15T03:50:39.375Z,18.65
2017-08-15T03:53:14.138Z,18.58
2017-08-15T03:55:49.939Z,18.50
2017-08-15T03:58:24.667Z,18.46
2017-08-15T04:00:59.292Z,18.34
2017-08-15T04:03:34.010Z,18.24
2017-08-15T04:06:08.871Z,18.32
2017-08-15T04:08:43.396Z,18.42
2017-08-15T04:11:17.979Z,18.42
2017-08-15T04:13:52.388Z,18.45
2017-08-15T04:16:28.183Z,18.43
2017-08-15T04:19:02.818Z,18.34
2017-08-15T04:21:37.549Z,18.30
2017-08-15T04:24:13.055Z,18.36
2017-08-15T04:26:48.748Z,18.41
2017-08-15T04:29:23.474Z,18.40
2017-08-15T04:31:58.084Z,18.35
2017-08-15T04:34:34.030Z,18.32
2017-08-15T04:37:08.478Z,18.32
2017-08-15T04:39:43.171Z,18.31
2017-08-15T04:42:17.747Z,18.23
2017-08-15T04:44:52.602Z,18.17
2017-08-15T04:47:27.099Z,18.12
2017-08-15T04:50:01.766Z,18.17
2017-08-15T04:52:36.494Z,18.12
2017-08-15T04:55:10.948Z,18.12
2017-08-15T04:57:45.515Z,18.17
2017-08-15T05:00:21.219Z,18.15
2017-08-15T05:02:57.075Z,18.17
2017-08-15T05:05:31.684Z,18.20
2017-08-15T05:08:07.455Z,18.26
2017-08-15T05:10:42.116Z,18.28
2017-08-15T05:13:16.722Z,18.36
2017-08-15T05:15:51.347Z,18.45
2017-08-15T05:18:26.099Z,18.55
2017-08-15T05:21:00.708Z,18.56
2017-08-15T05:23:37.366Z,18.61
2017-08-15T05:26:11.987Z,18.60
2017-08-15T05:28:47.721Z,18.65
2017-08-15T05:31:22.371Z,18.73
2017-08-15T05:33:57.002Z,18.79
2017-08-15T05:36:31.619Z,18.79
2017-08-15T05:39:06.006Z,18.83
2017-08-15T05:41:40.984Z,18.88
2017-08-15T05:44:16.723Z,19.04
2017-08-15T05:46:51.362Z,19.17
2017-08-15T05:49:25.994Z,19.26
2017-08-15T05:52:01.614Z,19.33
2017-08-15T05:54:36.396Z,19.36
2017-08-15T05:57:11.081Z,19.47
2017-08-15T05:59:45.649Z,19.57
2017-08-15T06:02:20.207Z,19.69
2017-08-15T06:04:54.868Z,19.86
2017-08-15T06:07:29.615Z,20.02
2017-08-15T06:10:04.367Z,20.17
2017-08-15T06:12:39.044Z,20.36
2017-08-15T06:15:13.788Z,20.54
2017-08-15T06:17:48.398Z,20.71
2017-08-15T06:20:23.090Z,20.87
2017-08-15T06:22:57.805Z,21.04
2017-08-15T06:25:33.555Z,21.17
2017-08-15T06:28:08.243Z,21.31
2017-08-15T06:30:42.930Z,21.46
2017-08-15T06:33:17.698Z,21.57
2017-08-15T06:35:52.361Z,21.71
2017-08-15T06:38:27.462Z,21.83
2017-08-15T06:41:02.806Z,21.92
2017-08-15T06:43:37.321Z,22.06
2017-08-15T06:46:12.095Z,22.17
2017-08-15T06:48:46.705Z,22.21
2017-08-15T06:51:22.471Z,22.34
2017-08-15T06:53:57.184Z,22.40
2017-08-15T06:56:31.764Z,22.53
2017-08-15T06:59:06.568Z,22.66
2017-08-15T07:01:41.119Z,22.73
2017-08-15T07:04:15.871Z,22.80
2017-08-15T07:06:50.528Z,22.92
2017-08-15T07:09:25.122Z,23.20
2017-08-15T07:12:00.682Z,23.30
2017-08-15T07:14:35.326Z,23.40
2017-08-15T07:17:10.075Z,23.61
2017-08-15T07:19:44.715Z,23.81
2017-08-15T07:22:19.419Z,23.82
2017-08-15T07:24:54.154Z,23.83
2017-08-15T07:27:29.634Z,23.97
2017-08-15T07:30:04.511Z,24.31
2017-08-15T07:32:39.148Z,24.34
2017-08-15T07:35:13.567Z,24.33
2017-08-15T07:37:48.265Z,24.24
2017-08-15T07:40:23.076Z,24.34
2017-08-15T07:42:57.751Z,24.45
2017-08-15T07:45:32.555Z,24.34
2017-08-15T07:48:07.191Z,24.54
2017-08-15T07:50:41.978Z,24.75
2017-08-15T07:53:16.783Z,24.96
2017-08-15T07:55:51.490Z,25.19
2017-08-15T07:58:26.224Z,25.53
2017-08-15T08:01:01.755Z,25.42
2017-08-15T08:03:36.171Z,25.57
2017-08-15T08:06:10.912Z,25.96
2017-08-15T08:08:45.627Z,26.07
2017-08-15T08:11:20.271Z,26.20
2017-08-15T08:13:56.008Z,26.44
2017-08-15T08:16:30.686Z,26.47
2017-08-15T08:19:05.316Z,26.35
2017-08-15T08:21:39.726Z,26.76
2017-08-15T08:24:14.380Z,27.08
2017-08-15T08:26:48.983Z,26.78
2017-08-15T08:29:23.711Z,26.72
2017-08-15T08:31:58.419Z,26.79
2017-08-15T08:34:33.053Z,26.92
2017-08-15T08:37:08.776Z,27.22
2017-08-15T08:39:43.400Z,27.21
2017-08-15T08:42:19.159Z,27.23
2017-08-15T08:44:54.168Z,27.14
2017-08-15T08:47:28.614Z,27.20
2017-08-15T08:50:03.263Z,27.31
2017-08-15T08:52:38.047Z,27.47
2017-08-15T08:55:12.708Z,27.42
2017-08-15T08:57:47.455Z,27.70
2017-08-15T09:00:21.984Z,27.95
2017-08-15T09:02:56.913Z,27.95
2017-08-15T09:05:32.424Z,28.10
2017-08-15T09:08:08.178Z,28.47
2017-08-15T09:10:42.751Z,28.56
2017-08-15T09:13:17.730Z,28.22
2017-08-15T09:15:52.308Z,27.82
2017-08-15T09:18:26.935Z,27.76
2017-08-15T09:21:01.031Z,27.66
2017-08-15T09:23:35.959Z,27.45
2017-08-15T09:26:11.814Z,27.48
2017-08-15T09:28:51.926Z,27.73
2017-08-15T09:31:27.027Z,27.76
2017-08-15T09:34:01.544Z,27.95
2017-08-15T09:36:36.256Z,27.94
2017-08-15T09:39:10.767Z,27.83
2017-08-15T09:41:45.654Z,28.09
2017-08-15T09:44:21.212Z,28.17
2017-08-15T09:46:55.911Z,28.31
2017-08-15T09:49:30.730Z,28.20
2017-08-15T09:52:05.443Z,28.38
2017-08-15T09:54:39.909Z,28.11
2017-08-15T09:57:15.736Z,27.76
2017-08-15T09:59:50.571Z,27.93
2017-08-15T10:02:25.288Z,27.92
2017-08-15T10:04:59.904Z,27.96
2017-08-15T10:07:34.623Z,28.18
2017-08-15T10:10:09.611Z,28.41
2017-08-15T10:12:43.935Z,28.42
2017-08-15T10:15:18.686Z,28.37
2017-08-15T10:17:53.455Z,28.40
2017-08-15T10:20:28.011Z,28.41
2017-08-15T10:23:02.658Z,28.42
2017-08-15T10:25:37.572Z,28.62
2017-08-15T10:28:11.994Z,28.65
2017-08-15T10:30:46.772Z,28.64
2017-08-15T10:33:21.497Z,28.44
2017-08-15T10:35:56.228Z,28.41
2017-08-15T10:38:30.959Z,28.18
2017-08-15T10:41:05.676Z,28.14
2017-08-15T10:43:42.290Z,28.45
2017-08-15T10:46:16.930Z,28.78
2017-08-15T10:48:51.832Z,28.85
2017-08-15T10:51:26.438Z,29.04
2017-08-15T10:54:01.167Z,29.05
2017-08-15T10:56:35.638Z,29.17
2017-08-15T10:59:10.331Z,29.25
2017-08-15T11:01:44.863Z,29.25
2017-08-15T11:04:19.727Z,29.46
2017-08-15T11:06:54.315Z,29.75
2017-08-15T11:09:29.047Z,29.66
2017-08-15T11:12:03.780Z,29.66
2017-08-15T11:14:38.534Z,29.31
2017-08-15T11:17:13.010Z,29.40
2017-08-15T11:19:47.854Z,29.36
2017-08-15T11:22:22.590Z,29.07
2017-08-15T11:24:57.332Z,28.99
2017-08-15T11:27:31.914Z,28.80
2017-08-15T11:30:06.635Z,28.63
2017-08-15T11:32:41.186Z,28.84
2017-08-15T11:35:15.902Z,28.68
2017-08-15T11:37:50.506Z,28.72
2017-08-15T11:40:25.368Z,28.79
2017-08-15T11:43:00.831Z,28.93
2017-08-15T11:45:36.638Z,28.81
2017-08-15T11:48:12.246Z,28.74
2017-08-15T11:50:46.943Z,28.68
2017-08-15T11:53:22.702Z,28.73
2017-08-15T11:55:57.409Z,28.71
2017-08-15T11:58:31.971Z,28.86
2017-08-15T12:01:07.055Z,28.83
2017-08-15T12:03:42.236Z,28.96
2017-08-15T12:06:16.983Z,29.06
2017-08-15T12:08:52.736Z,29.04
2017-08-15T12:11:27.367Z,29.15
2017-08-15T12:14:03.191Z,29.29
2017-08-15T12:16:37.850Z,29.41
2017-08-15T12:19:13.200Z,29.50
2017-08-15T12:21:48.130Z,29.48
2017-08-15T12:24:22.855Z,29.39
2017-08-15T12:26:57.392Z,29.29
2017-08-15T12:29:32.254Z,29.06
2017-08-15T12:32:06.704Z,29.16
2017-08-15T12:34:41.240Z,29.31
2017-08-15T12:37:16.034Z,29.41
2017-08-15T12:39:50.790Z,29.44
2017-08-15T12:42:25.494Z,29.52
2017-08-15T12:45:00.231Z,29.65
2017-08-15T12:47:34.951Z,29.53
2017-08-15T12:50:09.792Z,29.65
2017-08-15T12:52:45.562Z,29.97
2017-08-15T12:55:20.171Z,30.23
2017-08-15T12:57:55.823Z,30.16
2017-08-15T13:00:30.574Z,30.40
2017-08-15T13:03:05.319Z,30.74
2017-08-15T13:05:40.111Z,30.84
2017-08-15T13:08:14.915Z,30.80
2017-08-15T13:10:49.762Z,30.63
2017-08-15T13:13:24.412Z,30.68
2017-08-15T13:15:59.124Z,30.74
2017-08-15T13:18:34.799Z,30.48
2017-08-15T13:21:09.390Z,30.49
2017-08-15T13:23:53.639Z,30.89
2017-08-15T13:26:28.946Z,30.95
2017-08-15T13:29:03.834Z,30.90
2017-08-15T13:31:38.571Z,31.03
2017-08-15T13:34:13.240Z,30.69
2017-08-15T13:36:47.976Z,30.80
2017-08-15T13:39:22.611Z,30.99
2017-08-15T13:41:57.420Z,31.12
2017-08-15T13:44:32.023Z,31.08
2017-08-15T13:47:07.684Z,31.01
2017-08-15T13:49:43.319Z,30.55
2017-08-15T13:52:17.971Z,30.51
2017-08-15T13:54:52.719Z,30.96
2017-08-15T13:57:27.539Z,31.03
2017-08-15T14:00:04.150Z,30.82
2017-08-15T14:02:39.616Z,31.11
2017-08-15T14:05:14.256Z,31.31
2017-08-15T14:07:49.058Z,31.33
2017-08-15T14:10:23.881Z,31.22
2017-08-15T14:12:58.247Z,31.02
2017-08-15T14:15:33.048Z,31.09
2017-08-15T14:18:07.670Z,31.30
2017-08-15T14:20:42.443Z,31.19
2017-08-15T14:23:17.264Z,31.12
2017-08-15T14:25:51.739Z,30.99
2017-08-15T14:28:26.392Z,30.94
2017-08-15T14:31:01.120Z,31.14
2017-08-15T14:33:35.851Z,31.20
2017-08-15T14:36:10.127Z,30.71
2017-08-15T14:38:45.272Z,30.80
2017-08-15T14:41:20.050Z,30.67
2017-08-15T14:43:55.691Z,30.78
2017-08-15T14:46:31.412Z,30.76
2017-08-15T14:49:06.275Z,30.73
2017-08-15T14:51:41.875Z,30.75
2017-08-15T14:54:16.416Z,30.64
2017-08-15T14:56:51.419Z,30.96
2017-08-15T14:59:26.813Z,31.21
2017-08-15T15:02:01.695Z,31.09
2017-08-15T15:04:36.172Z,31.20
2017-08-15T15:07:11.822Z,31.18
2017-08-15T15:09:46.634Z,30.98
2017-08-15T15:12:21.140Z,30.77
2017-08-15T15:14:55.920Z,30.43
2017-08-15T15:17:30.640Z,30.58
2017-08-15T15:20:05.490Z,30.19
2017-08-15T15:22:40.123Z,30.22
2017-08-15T15:25:14.654Z,30.15
2017-08-15T15:27:49.188Z,30.13
2017-08-15T15:30:23.922Z,30.25
2017-08-15T15:32:58.652Z,30.26
2017-08-15T15:35:33.215Z,30.14
2017-08-15T15:38:07.868Z,30.07
2017-08-15T15:40:42.657Z,29.98
2017-08-15T15:43:17.342Z,29.78
2017-08-15T15:45:52.139Z,29.65
2017-08-15T15:48:26.698Z,29.69
2017-08-15T15:51:02.413Z,29.83
2017-08-15T15:53:38.116Z,29.86
2017-08-15T15:56:13.912Z,29.70
2017-08-15T15:58:48.664Z,29.65
2017-08-15T16:01:23.473Z,29.41
2017-08-15T16:03:59.156Z,29.25
2017-08-15T16:06:33.785Z,29.16
2017-08-15T16:09:08.428Z,29.14
2017-08-15T16:11:43.168Z,29.14
2017-08-15T16:14:17.831Z,29.24
2017-08-15T16:16:52.626Z,29.27
2017-08-15T16:19:27.182Z,29.28
2017-08-15T16:22:01.700Z,29.34
2017-08-15T16:24:36.431Z,29.29
2017-08-15T16:27:11.035Z,29.18
2017-08-15T16:29:45.696Z,29.17
2017-08-15T16:32:21.387Z,28.98
2017-08-15T16:34:56.131Z,28.93
2017-08-15T16:37:30.871Z,28.87
2017-08-15T16:40:05.392Z,28.76
2017-08-15T16:42:39.944Z,28.68
2017-08-15T16:45:14.587Z,28.51
2017-08-15T16:47:49.324Z,28.22
2017-08-15T16:50:24.091Z,28.28
2017-08-15T16:52:58.704Z,28.24
2017-08-15T16:55:33.407Z,28.19
2017-08-15T16:58:07.993Z,28.15
2017-08-15T17:00:42.648Z,28.00
2017-08-15T17:03:17.523Z,27.90
2017-08-15T17:05:51.822Z,27.89
2017-08-15T17:08:26.619Z,27.86
2017-08-15T17:11:01.827Z,27.89
2017-08-15T17:13:36.798Z,27.77
2017-08-15T17:16:12.858Z,27.73
2017-08-15T17:18:47.399Z,27.67
2017-08-15T17:21:22.020Z,27.53
2017-08-15T17:23:56.601Z,27.42
2017-08-15T17:26:31.228Z,27.50
2017-08-15T17:29:05.879Z,27.43
2017-08-15T17:31:40.595Z,27.36
2017-08-15T17:34:15.355Z,27.26
2017-08-15T17:36:49.949Z,27.27
2017-08-15T17:39:25.466Z,27.25
2017-08-15T17:42:00.013Z,27.18
2017-08-15T17:44:34.834Z,27.12
2017-08-15T17:47:10.539Z,27.09
2017-08-15T17:49:45.339Z,26.89
2017-08-15T17:52:19.984Z,26.84
2017-08-15T17:54:54.688Z,26.69
2017-08-15T17:57:29.392Z,26.65
2017-08-15T18:00:03.604Z,26.49
2017-08-15T18:02:38.519Z,26.34
2017-08-15T18:05:13.199Z,26.33
2017-08-15T18:07:48.019Z,26.22
2017-08-15T18:10:22.556Z,26.21
2017-08-15T18:12:57.270Z,26.10
2017-08-15T18:15:32.017Z,26.03
2017-08-15T18:18:06.754Z,25.67
2017-08-15T18:20:41.939Z,25.05
2017-08-15T18:23:17.248Z,24.18
2017-08-15T18:25:52.054Z,23.81
2017-08-15T18:28:26.774Z,23.49
2017-08-15T18:31:01.558Z,23.03
2017-08-15T18:33:36.279Z,22.65
2017-08-15T18:36:10.996Z,22.33
2017-08-15T18:38:46.816Z,22.24
2017-08-15T18:41:22.367Z,22.31
2017-08-15T18:43:57.088Z,22.21
2017-08-15T18:46:32.751Z,22.28
2017-08-15T18:49:07.396Z,22.22
2017-08-15T18:51:42.268Z,22.22
2017-08-15T18:54:16.664Z,22.39
2017-08-15T18:56:52.386Z,22.54
2017-08-15T18:59:27.115Z,22.70
2017-08-15T19:02:01.628Z,22.83
2017-08-15T19:04:36.370Z,22.86
2017-08-15T19:07:10.975Z,22.92
2017-08-15T19:09:45.624Z,22.70
2017-08-15T19:12:21.267Z,22.70
2017-08-15T19:14:55.899Z,22.72
2017-08-15T19:17:31.932Z,22.83
2017-08-15T19:20:07.138Z,22.76
2017-08-15T19:22:41.799Z,22.71
2017-08-15T19:25:16.579Z,22.72
2017-08-15T19:27:52.217Z,22.65
2017-08-15T19:30:27.087Z,22.70
2017-08-15T19:33:01.292Z,22.64
2017-08-15T19:35:36.075Z,22.49
2017-08-15T19:38:10.831Z,22.48
2017-08-15T19:40:45.577Z,22.46
2017-08-15T19:43:20.084Z,22.40
2017-08-15T19:45:55.266Z,22.26
2017-08-15T19:48:30.434Z,21.99
2017-08-15T19:51:06.183Z,21.87
2017-08-15T19:53:40.778Z,21.90
2017-08-15T19:56:15.546Z,21.95
2017-08-15T19:58:50.133Z,22.01
2017-08-15T20:01:24.988Z,22.06
2017-08-15T20:03:59.199Z,22.07
2017-08-15T20:06:34.007Z,22.01
2017-08-15T20:09:08.743Z,21.95
2017-08-15T20:11:43.516Z,21.85
2017-08-15T20:14:18.099Z,21.54
2017-08-15T20:16:52.823Z,21.49
2017-08-15T20:19:27.454Z,21.56
2017-08-15T20:22:01.840Z,21.63
2017-08-15T20:24:37.615Z,21.62
2017-08-15T20:27:13.410Z,21.57
2017-08-15T20:29:48.123Z,21.59
2017-08-15T20:32:22.871Z,21.63
2017-08-15T20:34:57.232Z,21.56
2017-08-15T20:37:32.135Z,21.49
2017-08-15T20:40:06.759Z,21.40
2017-08-15T20:42:41.460Z,21.35
2017-08-15T20:45:16.096Z,21.27
2017-08-15T20:47:50.744Z,21.22
2017-08-15T20:50:25.442Z,21.24
2017-08-15T20:53:00.177Z,21.26
2017-08-15T20:55:34.860Z,21.22
2017-08-15T20:58:10.546Z,21.28
2017-08-15T21:00:45.978Z,21.26
2017-08-15T21:03:21.033Z,21.02
2017-08-15T21:05:56.766Z,21.03
2017-08-15T21:08:31.451Z,21.10
2017-08-15T21:11:07.091Z,21.09
2017-08-15T21:13:42.194Z,21.07
2017-08-15T21:16:17.535Z,21.03
2017-08-15T21:18:52.266Z,21.03
2017-08-15T21:21:27.556Z,21.07
2017-08-15T21:24:03.688Z,20.97
2017-08-15T21:26:38.314Z,21.06
2017-08-15T21:29:13.067Z,21.18
2017-08-15T21:31:47.728Z,21.21
2017-08-15T21:34:22.696Z,21.17
2017-08-15T21:36:57.167Z,21.02
2017-08-15T21:39:31.786Z,20.90
2017-08-15T21:42:06.471Z,20.96
2017-08-15T21:44:42.238Z,20.93
2017-08-15T21:47:16.964Z,20.85
2017-08-15T21:49:51.728Z,20.91
2017-08-15T21:52:26.435Z,20.97
2017-08-15T21:55:01.158Z,21.05
2017-08-15T21:57:35.786Z,21.08
2017-08-15T22:00:10.444Z,21.09
2017-08-15T22:02:44.960Z,21.11
2017-08-15T22:05:19.660Z,21.06
2017-08-15T22:07:54.284Z,21.04
2017-08-15T22:10:30.031Z,21.05
2017-08-15T22:13:04.667Z,21.02
2017-08-15T22:15:39.334Z,21.01
2017-08-15T22:18:13.846Z,21.00
2017-08-15T22:20:48.609Z,20.98
2017-08-15T22:23:23.216Z,20.92
2017-08-15T22:25:58.934Z,20.95
2017-08-15T22:28:33.563Z,20.93
2017-08-15T22:31:08.182Z,20.95
2017-08-15T22:33:42.891Z,20.97
2017-08-15T22:36:17.450Z,20.92
2017-08-15T22:38:52.201Z,20.94
2017-08-15T22:41:27.860Z,20.99
2017-08-15T22:44:02.450Z,21.04
2017-08-15T22:46:37.094Z,21.09
2017-08-15T22:49:11.658Z,21.04
2017-08-15T22:51:46.468Z,21.03
2017-08-15T22:54:21.536Z,21.03
2017-08-15T22:56:57.895Z,21.01
2017-08-15T22:59:32.554Z,21.03
2017-08-15T23:02:07.319Z,20.99
2017-08-15T23:04:42.011Z,20.98
2017-08-15T23:07:16.754Z,20.95
2017-08-15T23:09:51.468Z,20.96
2017-08-15T23:12:27.367Z,20.98
2017-08-15T23:15:01.746Z,20.97
2017-08-15T23:17:37.375Z,20.93
2017-08-15T23:20:13.039Z,20.91
2017-08-15T23:22:47.646Z,20.90
2017-08-15T23:25:22.340Z,20.81
2017-08-15T23:27:56.859Z,20.74
2017-08-15T23:30:32.460Z,20.60
2017-08-15T23:33:07.163Z,20.55
2017-08-15T23:35:41.799Z,20.55
2017-08-15T23:38:16.502Z,20.54
2017-08-15T23:40:51.207Z,20.48
2017-08-15T23:43:25.878Z,20.47
2017-08-15T23:46:00.641Z,20.44
2017-08-15T23:48:36.400Z,20.43
2017-08-15T23:51:11.127Z,20.37
2017-08-15T23:53:45.728Z,20.37
2017-08-15T23:56:20.478Z,20.36
2017-08-15T23:58:55.480Z,20.30
